»·PEaware :: SKW1374 KSAN-KBUR

SKW1374 :: KSAN-KBUR

FLIGHT INFORMATION

Flight Status: Arrived
Operator:
SkyWest Airlines
More flights by this operator :: More flights under this callsign
Pilot: Oliver B. (21155)
Aircraft: CANADAIR CL-600 CRJ-700
(CRJ7)
More flights by this aircraft type
Origin: KSAN San Diego Intl-Lindbergh
United States
Destination: KBUR Bob Hope-Burbank
United States
More flights between these airports :: More routes between these airports
Route: +CWARD2 LAX SILEX
File this flight plan on PilotEdge
Remarks: RMK / SIMBRIEF
Altitude:
(Current/Filed)
10,000ft
Speed:
(Current/Filed)
345kts
Departed: 20-Nov-20 02:00 PM
Arrived: 20-Nov-20 02:32 PM
Distance/Time
Traveled:
105nm/0:31
Distance/Time
To Go:
Arrived

Flight Plot

Page will automatically refresh every two minutes.

Flight plan parsing failed; only flown route is shown


Map Options




Map Legend


Flown Route
Filed Route
Departure Airport
Arrival Airport
Navaid (VOR, NDB)
Fix

Horizontal Profiles

Position Reports

Time Latitude Longitude Heading Altitude Ground
Speed
20-Nov-20 13:40 32.734015 -117.201708 152 24ft 0kts
20-Nov-20 13:41 32.734015 -117.201708 152 24ft 0kts
20-Nov-20 13:42 32.734015 -117.201708 152 24ft 0kts
20-Nov-20 13:43 32.734015 -117.201708 152 24ft 0kts
20-Nov-20 13:44 32.734015 -117.201708 152 24ft 0kts
20-Nov-20 13:45 32.734015 -117.201708 152 24ft 0kts
20-Nov-20 13:46 32.734015 -117.201708 152 24ft 0kts
20-Nov-20 13:47 32.734015 -117.201708 152 24ft 0kts
20-Nov-20 13:48 32.734015 -117.201708 152 24ft 0kts
20-Nov-20 13:49 32.733996 -117.201696 150 24ft 0kts
20-Nov-20 13:50 32.734119 -117.201471 32 24ft 0kts
20-Nov-20 13:51 32.734659 -117.201186 23 24ft 7kts
20-Nov-20 13:52 32.734711 -117.198603 108 24ft 11kts
20-Nov-20 13:53 32.733617 -117.194021 106 24ft 17kts
20-Nov-20 13:54 32.732134 -117.187969 106 24ft 20kts
20-Nov-20 13:55 32.730664 -117.182000 106 24ft 17kts
20-Nov-20 13:56 32.729484 -117.177208 103 24ft 9kts
20-Nov-20 13:57 32.729535 -117.176382 75 24ft 0kts
20-Nov-20 13:58 32.730216 -117.176009 292 24ft 8kts
20-Nov-20 13:59 32.739670 -117.208353 304 1216ft 192kts
20-Nov-20 14:00 32.768007 -117.256441 300 6430ft 198kts
20-Nov-20 14:01 32.798472 -117.316152 301 10249ft 262kts
20-Nov-20 14:02 32.853850 -117.402025 309 10114ft 385kts
20-Nov-20 14:03 32.916786 -117.499012 307 10099ft 364kts
20-Nov-20 14:04 32.978054 -117.594164 306 10082ft 362kts
20-Nov-20 14:05 33.039230 -117.689882 306 10073ft 362kts
20-Nov-20 14:06 33.109680 -117.773754 323 10078ft 360kts
20-Nov-20 14:07 33.185182 -117.852389 316 10075ft 361kts
20-Nov-20 14:08 33.279908 -117.881294 348 10080ft 360kts
20-Nov-20 14:09 33.376950 -117.907732 344 10070ft 362kts
20-Nov-20 14:10 33.454732 -117.977388 320 8321ft 353kts
20-Nov-20 14:11 33.531257 -118.048696 322 6269ft 344kts
20-Nov-20 14:12 33.604595 -118.117247 321 5986ft 336kts
20-Nov-20 14:13 33.667436 -118.177275 321 5978ft 253kts
20-Nov-20 14:14 33.716930 -118.224673 321 5986ft 216kts
20-Nov-20 14:15 33.767393 -118.272781 322 5988ft 238kts
20-Nov-20 14:16 33.818730 -118.321773 321 5988ft 232kts
20-Nov-20 14:17 33.869007 -118.369633 321 5996ft 229kts
20-Nov-20 14:18 33.918597 -118.417970 320 5998ft 227kts
20-Nov-20 14:19 33.965048 -118.468871 312 5729ft 225kts
20-Nov-20 14:20 34.006795 -118.524439 313 5120ft 221kts
20-Nov-20 14:21 34.053509 -118.571633 321 5005ft 229kts
20-Nov-20 14:22 34.103771 -118.619834 322 4984ft 218kts
20-Nov-20 14:23 34.150918 -118.664889 322 4992ft 224kts
20-Nov-20 14:24 34.199492 -118.670693 65 5007ft 199kts
20-Nov-20 14:25 34.200442 -118.604332 89 4576ft 178kts
20-Nov-20 14:26 34.200478 -118.549810 91 3598ft 151kts
20-Nov-20 14:27 34.199432 -118.499809 90 2879ft 148kts
20-Nov-20 14:28 34.198354 -118.449821 92 2236ft 145kts
20-Nov-20 14:29 34.198457 -118.399189 91 1412ft 150kts
20-Nov-20 14:30 34.197632 -118.354224 95 728ft 57kts
20-Nov-20 14:31 34.197360 -118.350732 167 728ft 1kts
20-Nov-20 14:32 34.197161 -118.351707 272 728ft 10kts
20-Nov-20 14:33 34.196916 -118.355514 184 728ft 5kts
20-Nov-20 14:34 34.196082 -118.355189 103 728ft 1kts
20-Nov-20 14:35 34.196081 -118.355182 102 728ft 0kts

Navigation Log

Ident Type
Flight plan parsing failed, navigation log unavailable